Time;durP1;ratioP1;P1;durP2;ratioP2;P2;SDS_P1;SDS_P2;PMS_P1;PMS_P2;Temp;Humidity;BMP_temperature;BMP_pressure;BME280_temperature;BME280_humidity;BME280_pressure;Samples;Min_cycle;Max_cycle;Signal;HPM_P1;HPM_P2
2023/03/10 06:01:21;;;;;;;;;0.00;0.00;;;;;10.79;81.73;-19500.53;5631382;23;46000;-86
2023/03/10 06:03:46;;;;;;;;;0.00;0.00;;;;;11.89;81.52;-19529.53;5000060;28;46402;-86
2023/03/10 06:06:12;;;;;;;;;0.00;0.00;;;;;10.13;81.60;-19483.13;5000294;28;45530;-87
2023/03/10 06:08:44;;;;;;;;;0.33;0.00;;;;;11.88;81.97;-19529.13;4999562;28;45338;-87
2023/03/10 06:11:11;;;;;;;;;0.00;0.00;;;;;10.09;81.38;-19482.19;5000475;28;45798;-86
2023/03/10 06:13:36;;;;;;;;;0.00;0.00;;;;;10.92;82.08;-19504.03;4999944;28;47185;-86
2023/03/10 06:16:04;;;;;;;;;0.00;0.00;;;;;10.50;82.08;-19492.97;5000260;28;45432;-86
2023/03/10 06:18:30;;;;;;;;;0.00;0.00;;;;;11.72;82.22;-19524.94;5000314;28;45489;-87
2023/03/10 06:20:59;;;;;;;;;0.00;0.00;;;;;11.49;82.64;-19519.00;5000438;28;45415;-86
2023/03/10 06:23:28;;;;;;;;;0.00;0.00;;;;;10.71;82.52;-19498.38;4999342;28;46507;-87
2023/03/10 06:25:59;;;;;;;;;1.00;0.00;;;;;10.99;82.70;-19505.94;4999907;28;45407;-87
2023/03/10 06:28:32;;;;;;;;;0.00;0.00;;;;;10.42;82.42;-19490.81;4999899;28;45361;-87
2023/03/10 06:31:06;;;;;;;;;0.00;0.00;;;;;11.77;83.45;-19526.41;5000234;28;45434;-87
2023/03/10 06:33:38;;;;;;;;;0.00;0.00;;;;;10.04;83.09;-19480.84;4999832;28;46176;-87
2023/03/10 06:36:13;;;;;;;;;1.00;0.00;;;;;9.92;83.65;-19477.72;4982236;28;46034;-87
2023/03/10 06:38:54;;;;;;;;;1.00;0.00;;;;;11.66;84.09;-19523.47;4994864;28;45486;-87
2023/03/10 06:41:23;;;;;;;;;0.00;0.00;;;;;10.58;84.31;-19495.00;4999933;28;45375;-87
2023/03/10 06:50:34;;;;;;;;;0.00;0.00;;;;;10.65;84.24;-19496.75;4999104;22;45235;-86
2023/03/10 06:53:15;;;;;;;;;0.00;0.00;;;;;11.01;84.30;-19506.34;4999123;28;45379;-86
2023/03/10 06:55:44;;;;;;;;;0.00;0.00;;;;;10.15;84.48;-19483.81;4999031;28;45616;-86
2023/03/10 06:58:30;;;;;;;;;0.00;0.00;;;;;11.82;84.65;-19527.75;4995112;28;45498;-86
2023/03/10 07:00:55;;;;;;;;;0.67;0.00;;;;;10.72;84.50;-19498.66;4999418;28;45325;-86
2023/03/10 07:03:21;;;;;;;;;1.00;0.00;;;;;11.38;84.61;-19516.19;4999998;28;45492;-86
2023/03/10 07:05:49;;;;;;;;;0.00;0.00;;;;;11.71;84.72;-19524.81;4998263;28;45524;-86
2023/03/10 07:08:24;;;;;;;;;0.00;0.00;;;;;9.84;84.53;-19475.56;4999524;28;45337;-89
2023/03/10 07:10:49;;;;;;;;;0.00;0.00;;;;;11.45;84.82;-19517.94;4999741;28;45403;-90
2023/03/10 07:13:16;;;;;;;;;0.00;0.00;;;;;10.45;84.93;-19491.50;4998362;28;45621;-86
2023/03/10 07:15:50;;;;;;;;;1.00;1.00;;;;;11.89;84.83;-19529.38;4992814;28;46627;-89
2023/03/10 07:18:16;;;;;;;;;0.00;0.00;;;;;11.64;84.98;-19522.78;4998153;28;45546;-89
2023/03/10 07:21:03;;;;;;;;;0.00;0.00;;;;;11.08;85.21;-19508.22;4979546;28;45498;-89
2023/03/10 07:23:32;;;;;;;;;0.00;0.00;;;;;10.15;84.92;-19483.66;4996355;28;45429;-87
2023/03/10 07:28:57;;;;;;;;;0.00;0.00;;;;;11.90;85.64;-19529.78;4985773;22;45459;-87
2023/03/10 07:31:22;;;;;;;;;0.00;0.00;;;;;11.85;85.29;-19528.44;4960949;28;45471;-87
2023/03/10 07:33:50;;;;;;;;;0.00;0.00;;;;;11.97;84.23;-19531.69;4960505;28;45488;-87
2023/03/10 07:36:17;;;;;;;;;0.00;0.00;;;;;10.77;83.78;-19500.13;4981556;28;46632;-87
2023/03/10 07:38:43;;;;;;;;;0.00;0.00;;;;;11.87;83.47;-19528.84;4962383;28;46153;-87
2023/03/10 07:41:12;;;;;;;;;0.00;0.00;;;;;12.06;83.37;-19533.97;4951428;28;45643;-87
2023/03/10 07:43:38;;;;;;;;;0.00;0.00;;;;;11.41;82.64;-19516.84;4960147;28;46345;-86
2023/03/10 07:46:08;;;;;;;;;0.00;0.00;;;;;12.09;82.62;-19534.63;4973135;28;45475;-86
2023/03/10 07:48:34;;;;;;;;;0.00;0.00;;;;;12.10;82.40;-19535.03;4957182;28;45638;-88
2023/03/10 07:51:00;;;;;;;;;0.00;0.00;;;;;11.87;81.51;-19528.84;4977940;28;45380;-88
2023/03/10 07:53:26;;;;;;;;;0.00;0.00;;;;;11.72;81.23;-19525.06;4978793;28;45443;-90
2023/03/10 07:55:52;;;;;;;;;0.00;0.00;;;;;12.11;80.26;-19535.31;4977843;28;45614;-88
2023/03/10 07:58:18;;;;;;;;;17.33;17.33;;;;;10.78;79.83;-19500.41;4978405;28;45395;-90
2023/03/10 08:00:43;;;;;;;;;0.00;0.00;;;;;12.06;79.10;-19533.97;4978445;28;45714;-90
2023/03/10 08:03:08;;;;;;;;;0.00;0.00;;;;;11.99;78.70;-19532.22;4974684;28;45558;-89
2023/03/10 08:05:41;;;;;;;;;6.00;6.00;;;;;12.26;78.99;-19539.22;4975230;28;46413;-90
2023/03/10 08:08:07;;;;;;;;;0.00;0.00;;;;;11.78;78.57;-19526.69;4971837;28;45320;-89
2023/03/10 08:10:33;;;;;;;;;0.00;0.00;;;;;12.25;78.98;-19539.09;4973640;28;45561;-89
2023/03/10 08:12:58;;;;;;;;;0.00;0.00;;;;;12.15;79.04;-19536.25;4961211;28;45423;-88
2023/03/10 08:15:25;;;;;;;;;1.00;0.00;;;;;11.00;78.16;-19506.06;4977486;28;45543;-87
2023/03/10 08:17:51;;;;;;;;;0.00;0.00;;;;;11.59;78.41;-19521.69;4958731;28;45227;-89
2023/03/10 08:20:17;;;;;;;;;0.00;0.00;;;;;11.29;77.71;-19513.63;4971002;28;45471;-88
2023/03/10 08:22:42;;;;;;;;;0.33;0.00;;;;;11.57;77.27;-19521.16;4965819;28;46030;-89
2023/03/10 08:25:08;;;;;;;;;0.00;0.00;;;;;11.16;77.72;-19510.25;4955028;28;47473;-87
2023/03/10 08:27:34;;;;;;;;;0.00;0.00;;;;;12.09;77.27;-19534.63;4972163;28;45559;-88
2023/03/10 08:29:59;;;;;;;;;0.67;0.67;;;;;12.24;77.32;-19538.69;4977103;28;45530;-89
2023/03/10 08:32:25;;;;;;;;;4.33;4.33;;;;;12.28;76.81;-19539.63;4979014;28;45686;-88
2023/03/10 08:34:50;;;;;;;;;2.00;2.00;;;;;11.86;76.39;-19528.56;4973055;28;45459;-86
2023/03/10 08:37:16;;;;;;;;;0.33;0.00;;;;;11.27;76.56;-19513.22;4973128;28;45503;-88
2023/03/10 08:39:41;;;;;;;;;0.00;0.00;;;;;12.05;76.06;-19533.69;4975122;28;45468;-90
2023/03/10 08:42:10;;;;;;;;;0.67;0.00;;;;;11.87;76.06;-19528.97;4967953;28;45551;-91
2023/03/10 08:44:35;;;;;;;;;0.00;0.00;;;;;12.29;76.50;-19540.03;4954685;28;47048;-90
2023/03/10 08:47:00;;;;;;;;;0.00;0.00;;;;;12.04;76.82;-19533.44;4950491;28;46017;-91
2023/03/10 08:49:26;;;;;;;;;1.33;1.33;;;;;11.79;76.92;-19526.81;4970278;28;45443;-94
2023/03/10 08:51:51;;;;;;;;;6.67;4.00;;;;;12.06;76.36;-19533.81;4964795;28;46758;-94
2023/03/10 08:54:19;;;;;;;;;1.67;0.33;;;;;11.85;75.00;-19528.44;4960651;28;47133;-95
2023/03/10 08:56:45;;;;;;;;;1.67;1.67;;;;;12.28;75.55;-19539.63;4974432;28;45434;-93
2023/03/10 08:59:10;;;;;;;;;0.00;0.00;;;;;12.07;75.01;-19534.09;4943646;28;45374;-95
2023/03/10 09:01:36;;;;;;;;;0.00;0.00;;;;;11.84;74.34;-19528.31;4951291;28;45610;-89
2023/03/10 09:04:04;;;;;;;;;0.00;0.00;;;;;12.19;74.43;-19537.34;4977113;28;46130;-91
2023/03/10 09:06:30;;;;;;;;;0.00;0.00;;;;;11.96;74.94;-19531.28;4980480;28;45315;-94
2023/03/10 09:08:56;;;;;;;;;2.00;1.00;;;;;12.17;74.85;-19536.78;4972913;28;45244;-93
2023/03/10 09:11:27;;;;;;;;;2.00;0.00;;;;;12.13;74.21;-19535.84;4960579;28;45820;-87
2023/03/10 09:13:53;;;;;;;;;0.00;0.00;;;;;11.69;74.06;-19524.13;4961109;28;47343;-90
2023/03/10 09:16:18;;;;;;;;;1.33;0.00;;;;;11.90;74.70;-19529.66;4964218;28;45591;-93
2023/03/10 09:18:44;;;;;;;;;1.33;0.00;;;;;11.66;74.76;-19523.47;4977177;28;45328;-88
2023/03/10 09:21:15;;;;;;;;;0.00;0.00;;;;;12.02;75.01;-19533.03;4976875;28;45367;-88
2023/03/10 09:23:43;;;;;;;;;1.00;1.00;;;;;11.35;75.59;-19515.38;4977363;28;45690;-88
2023/03/10 09:26:08;;;;;;;;;1.00;1.00;;;;;11.48;75.35;-19518.59;4976437;28;45482;-95
2023/03/10 09:28:34;;;;;;;;;1.00;0.33;;;;;11.15;75.16;-19510.13;4972315;28;45318;-94
2023/03/10 09:30:59;;;;;;;;;1.00;1.00;;;;;11.09;74.82;-19508.34;4981137;28;45502;-95
2023/03/10 09:33:25;;;;;;;;;0.67;0.67;;;;;11.82;75.14;-19527.75;4962754;28;48529;-94
2023/03/10 09:35:51;;;;;;;;;0.00;0.00;;;;;10.97;75.05;-19505.25;4964862;28;46180;-94
2023/03/10 09:38:17;;;;;;;;;1.00;1.00;;;;;11.76;74.64;-19526.16;4962611;28;45246;-95
2023/03/10 09:40:54;;;;;;;;;0.00;0.00;;;;;11.72;75.47;-19525.06;4961123;28;45513;-94
2023/03/10 09:43:21;;;;;;;;;0.00;0.00;;;;;11.52;75.67;-19519.81;4961435;28;48319;-95
2023/03/10 09:46:04;;;;;;;;;0.00;0.00;;;;;11.63;74.74;-19522.66;4961085;28;46353;-95
2023/03/10 09:48:44;;;;;;;;;0.33;0.33;;;;;11.60;73.44;-19521.84;4961098;28;45417;-94
2023/03/10 09:51:29;;;;;;;;;0.00;0.00;;;;;11.29;73.44;-19513.63;4961742;28;45352;-94
2023/03/10 09:54:15;;;;;;;;;0.00;0.00;;;;;11.56;72.59;-19520.75;4976907;28;47134;-94
2023/03/10 09:56:40;;;;;;;;;0.33;0.33;;;;;11.36;72.06;-19515.50;4957933;28;45341;-95
2023/03/10 09:59:10;;;;;;;;;0.00;0.00;;;;;11.60;72.34;-19521.97;4941971;28;45523;-94
2023/03/10 10:01:36;;;;;;;;;0.00;0.00;;;;;11.39;72.24;-19516.31;4951282;28;45472;-95
2023/03/10 10:04:30;;;;;;;;;2.00;1.00;;;;;11.59;72.92;-19521.69;4961195;28;47607;-95
2023/03/10 10:06:57;;;;;;;;;0.00;0.00;;;;;11.01;71.78;-19506.34;4960886;28;46583;-91
2023/03/10 10:09:45;;;;;;;;;3.33;1.33;;;;;11.60;70.65;-19521.84;4976590;28;45482;-92
2023/03/10 10:12:22;;;;;;;;;2.00;0.67;;;;;11.59;69.03;-19521.69;4978182;28;45304;-91
2023/03/10 10:14:52;;;;;;;;;0.00;0.00;;;;;10.93;68.38;-19504.31;4959577;28;48086;-91
2023/03/10 10:17:32;;;;;;;;;1.00;1.00;;;;;11.56;67.87;-19520.75;4960029;28;45461;-92
2023/03/10 10:19:58;;;;;;;;;1.00;1.00;;;;;11.11;67.84;-19509.03;4977631;28;45404;-92
2023/03/10 10:22:28;;;;;;;;;2.00;0.00;;;;;11.62;67.06;-19522.50;4976360;28;45510;-92
2023/03/10 10:25:11;;;;;;;;;1.33;1.00;;;;;11.40;66.84;-19516.59;4976267;28;48845;-91
2023/03/10 10:27:37;;;;;;;;;2.00;1.00;;;;;11.63;66.08;-19522.66;4975711;28;45574;-90
2023/03/10 10:30:35;;;;;;;;;2.00;1.00;;;;;11.62;66.70;-19522.38;4959880;28;45493;-91
2023/03/10 10:33:06;;;;;;;;;1.00;1.00;;;;;10.67;66.41;-19497.44;4976598;28;45317;-91
2023/03/10 10:35:38;;;;;;;;;1.00;1.00;;;;;11.69;65.17;-19524.13;4976784;28;45677;-92
2023/03/10 10:38:09;;;;;;;;;1.00;1.00;;;;;11.70;65.07;-19524.53;4959902;28;45314;-92
2023/03/10 10:40:47;;;;;;;;;0.00;0.00;;;;;11.59;64.80;-19519.63;4978437;28;45349;-92
2023/03/10 10:43:18;;;;;;;;;1.00;1.00;;;;;11.82;64.41;-19525.69;4979233;28;45372;-91
2023/03/10 10:45:52;;;;;;;;;3.67;1.00;;;;;11.78;64.23;-19524.75;4978820;28;48417;-91
2023/03/10 10:48:39;;;;;;;;;2.00;2.00;;;;;11.74;62.90;-19192.16;4979099;28;45762;-92
2023/03/10 10:51:17;;;;;;;;;1.00;1.00;;;;;12.23;62.27;-18872.94;4979274;28;45389;-91
2023/03/10 10:53:43;;;;;;;;;2.00;0.00;;;;;11.86;61.49;-18531.88;4963390;28;45466;-91
2023/03/10 10:56:15;;;;;;;;;0.00;0.00;;;;;12.12;61.40;-18206.53;4963007;28;47998;-92
2023/03/10 10:58:42;;;;;;;;;1.33;0.33;;;;;10.91;61.13;-17846.25;4979950;28;45348;-92
2023/03/10 11:01:13;;;;;;;;;3.00;2.00;;;;;12.10;61.15;-17874.25;4978917;28;45308;-90
2023/03/10 11:03:43;;;;;;;;;0.00;0.00;;;;;12.12;60.72;-17542.91;4962998;28;45291;-92
2023/03/10 11:06:13;;;;;;;;;3.33;1.00;;;;;12.15;59.95;-16879.81;4973931;28;47226;-91
2023/03/10 11:08:41;;;;;;;;;1.00;1.00;;;;;12.60;59.61;-17221.91;4981959;28;45433;-92
2023/03/10 11:11:23;;;;;;;;;0.00;0.00;;;;;12.70;58.69;-16891.88;4982460;28;45349;-92
2023/03/10 11:14:00;;;;;;;;;2.33;1.67;;;;;13.03;58.27;-16234.47;4982236;28;45391;-92
2023/03/10 11:16:47;;;;;;;;;3.00;1.00;;;;;12.48;57.95;-15558.50;4999368;28;46752;-92
2023/03/10 11:19:15;;;;;;;;;1.33;0.67;;;;;13.00;56.56;-13905.94;4981990;28;45998;-91
2023/03/10 11:21:46;;;;;;;;;0.33;0.33;;;;;12.95;57.53;-13905.16;4981948;28;45427;-92
2023/03/10 11:24:30;;;;;;;;;1.00;0.67;;;;;12.92;56.68;-12906.69;4982484;28;45630;-92
2023/03/10 11:26:58;;;;;;;;;0.00;0.00;;;;;13.25;55.78;-12578.94;4999020;28;45340;-92
2023/03/10 11:29:26;;;;;;;;;1.67;0.00;;;;;13.37;55.35;-12247.75;4982153;28;45395;-92
2023/03/10 11:32:02;;;;;;;;;0.67;0.67;;;;;13.38;55.17;-11581.94;4982268;28;45438;-92
2023/03/10 11:34:31;;;;;;;;;3.00;0.00;;;;;12.12;54.64;-10900.03;4981869;28;45481;-91
2023/03/10 11:36:56;;;;;;;;;0.00;0.00;;;;;13.91;54.32;-11255.78;4982130;28;47570;-92
2023/03/10 11:39:49;;;;;;;;;2.33;0.67;;;;;13.94;53.35;-11256.13;4981509;28;46183;-91
2023/03/10 11:42:35;;;;;;;;;0.00;0.00;;;;;14.33;53.48;-9926.59;4981961;28;45418;-92
2023/03/10 11:45:19;;;;;;;;;3.67;1.67;;;;;14.42;52.92;-8926.22;4981452;28;45567;-92
2023/03/10 11:48:18;;;;;;;;;1.00;1.00;;;;;14.71;52.63;-8260.81;4979596;28;45637;-91
2023/03/10 11:50:53;;;;;;;;;1.00;1.00;;;;;14.37;51.77;-7256.34;4979222;28;45352;-92
2023/03/10 11:53:50;;;;;;;;;0.00;0.00;;;;;13.62;51.69;-5917.00;4961267;28;45370;-92
2023/03/10 11:56:19;;;;;;;;;2.00;1.00;;;;;14.02;51.37;-3914.97;4958144;28;45596;-92
2023/03/10 11:58:51;;;;;;;;;3.00;1.33;;;;;14.30;51.43;-3246.84;4979086;28;46376;-92
2023/03/10 12:01:24;;;;;;;;;1.00;1.00;;;;;14.09;51.88;-2578.47;4977835;28;45480;-92
2023/03/10 12:03:53;;;;;;;;;1.33;1.00;;;;;13.12;52.07;-1578.19;4978159;28;45459;-92
2023/03/10 12:06:34;;;;;;;;;1.00;1.00;;;;;13.76;52.30;-1242.41;4992665;28;45341;-96
2023/03/10 12:09:01;;;;;;;;;0.00;0.00;;;;;13.26;52.53;-242.16;4982588;28;47381;-96
2023/03/10 12:11:28;;;;;;;;;0.67;0.67;;;;;13.21;52.53;-242.41;4982035;28;45582;-96
2023/03/10 12:14:00;;;;;;;;;0.00;0.00;;;;;12.96;52.13;757.97;4998890;28;45415;-96
2023/03/10 12:16:36;;;;;;;;;0.00;0.00;;;;;13.25;52.45;759.78;4999267;28;45390;-95
2023/03/10 12:19:04;;;;;;;;;0.67;0.67;;;;;13.04;52.80;758.50;4982210;28;47867;-95
2023/03/10 12:21:30;;;;;;;;;0.33;0.33;;;;;12.11;52.78;1086.09;4982169;28;45731;-96
2023/03/10 12:23:58;;;;;;;;;2.33;1.00;;;;;12.66;53.25;1089.88;4982223;28;45339;-96
2023/03/10 12:26:39;;;;;;;;;0.67;0.67;;;;;13.03;53.50;1092.38;4982264;28;45360;-96
2023/03/10 12:29:20;;;;;;;;;2.00;0.00;;;;;12.95;54.18;757.88;4982235;28;47249;-95
2023/03/10 12:31:53;;;;;;;;;0.00;0.00;;;;;12.41;54.42;754.53;4982222;28;45809;-95
2023/03/10 12:34:23;;;;;;;;;0.33;0.33;;;;;12.46;55.45;-245.91;4982288;28;45346;-95
2023/03/10 12:37:10;;;;;;;;;0.67;0.67;;;;;12.67;56.42;-1912.81;4982577;28;45425;-95
2023/03/10 12:39:38;;;;;;;;;1.00;1.00;;;;;12.59;55.72;-1245.97;4981286;28;48517;-96
2023/03/10 12:42:24;;;;;;;;;1.00;1.00;;;;;12.55;55.35;-579.06;4981852;28;45342;-96
2023/03/10 12:45:05;;;;;;;;;0.67;0.67;;;;;12.53;55.69;-245.59;4971584;28;45308;-96
2023/03/10 12:47:43;;;;;;;;;1.33;1.33;;;;;12.58;54.94;-245.34;4943089;28;45327;-95
2023/03/10 12:50:21;;;;;;;;;0.00;0.00;;;;;12.71;54.70;-244.72;4942789;28;48275;-95
2023/03/10 12:52:56;;;;;;;;;0.00;0.00;;;;;12.72;54.68;89.00;4942539;28;45900;-96
2023/03/10 12:55:23;;;;;;;;;0.00;0.00;;;;;12.65;54.56;422.34;4942918;28;45482;-96
2023/03/10 12:57:51;;;;;;;;;0.00;0.00;;;;;12.58;54.31;1089.28;4942849;28;45570;-95
2023/03/10 13:00:28;;;;;;;;;0.00;0.00;;;;;12.46;54.24;1755.91;4942539;28;48739;-95
2023/03/10 13:03:03;;;;;;;;;0.00;0.00;;;;;12.35;54.25;2088.69;4942275;28;46148;-96
2023/03/10 13:05:32;;;;;;;;;0.00;0.00;;;;;12.13;54.22;2420.38;4954162;28;45461;-96
2023/03/10 13:08:10;;;;;;;;;0.00;0.00;;;;;12.07;55.39;2419.88;4982170;28;45563;-96
2023/03/10 13:10:37;;;;;;;;;1.00;1.00;;;;;11.85;55.26;2084.47;4981310;28;47241;-96
2023/03/10 13:13:07;;;;;;;;;3.00;1.00;;;;;12.02;54.92;2085.91;4981675;28;45452;-96
2023/03/10 13:15:34;;;;;;;;;1.67;0.00;;;;;12.04;55.38;2086.09;4981743;28;45353;-95
2023/03/10 13:18:10;;;;;;;;;0.00;0.00;;;;;11.97;54.72;3419.59;4982139;28;45373;-96
2023/03/10 13:20:36;;;;;;;;;0.00;0.00;;;;;11.28;53.61;4412.16;4981250;28;47288;-95
2023/03/10 13:23:02;;;;;;;;;0.67;0.67;;;;;11.88;53.71;5086.78;4981189;28;45341;-96
2023/03/10 13:25:27;;;;;;;;;0.00;0.00;;;;;11.85;53.78;5420.06;4978898;28;45307;-96
2023/03/10 13:27:56;;;;;;;;;0.67;0.67;;;;;11.02;53.86;5075.38;4958848;28;45588;-96
2023/03/10 13:30:25;;;;;;;;;2.00;1.00;;;;;10.97;53.96;5408.06;4958182;28;48100;-96
2023/03/10 13:32:57;;;;;;;;;1.67;1.67;;;;;11.42;54.40;4747.28;4958565;28;45323;-95
2023/03/10 13:35:37;;;;;;;;;1.00;1.00;;;;;10.32;54.32;4733.47;4958212;28;45447;-96
2023/03/10 13:38:09;;;;;;;;;1.00;0.67;;;;;11.92;54.44;4419.94;4958541;28;45432;-96
2023/03/10 13:40:37;;;;;;;;;0.00;0.00;;;;;11.67;53.38;5751.16;4958230;28;48627;-96
2023/03/10 13:43:06;;;;;;;;;0.00;0.00;;;;;11.08;53.87;6076.19;4958606;28;46165;-96
2023/03/10 13:45:33;;;;;;;;;0.00;0.00;;;;;11.06;53.90;5742.47;4958137;28;45761;-96
2023/03/10 13:48:05;;;;;;;;;0.00;0.00;;;;;11.68;54.40;5751.38;4974844;28;45402;-95
2023/03/10 13:50:30;;;;;;;;;0.00;0.00;;;;;11.61;54.06;6417.69;4957816;28;47501;-96
2023/03/10 13:52:58;;;;;;;;;0.33;0.33;;;;;10.23;54.75;5397.84;4958253;28;45468;-96
2023/03/10 13:55:25;;;;;;;;;0.00;0.00;;;;;11.30;54.46;6079.34;4958327;28;45407;-96
2023/03/10 13:57:52;;;;;;;;;0.00;0.00;;;;;11.43;54.33;6414.88;4958364;28;45350;-96
2023/03/10 14:00:20;;;;;;;;;0.00;0.00;;;;;11.53;54.53;6416.44;4958240;28;48437;-95
2023/03/10 14:02:50;;;;;;;;;1.67;0.67;;;;;11.50;54.72;6082.28;4958131;28;46062;-95
2023/03/10 14:05:36;;;;;;;;;2.33;1.00;;;;;11.49;54.78;6082.22;4978311;28;45290;-96
2023/03/10 14:08:03;;;;;;;;;0.33;0.33;;;;;11.32;55.43;5746.25;4977460;28;45548;-96
2023/03/10 14:10:28;;;;;;;;;1.00;0.00;;;;;10.80;55.52;5405.69;4977405;28;47521;-96
2023/03/10 14:12:54;;;;;;;;;0.33;0.33;;;;;11.38;55.76;5080.22;4977562;28;45329;-96
2023/03/10 14:15:27;;;;;;;;;0.00;0.00;;;;;11.40;56.62;3747.00;4978514;28;45337;-96
2023/03/10 14:18:05;;;;;;;;;1.00;1.00;;;;;11.38;57.40;2746.94;4981387;28;45363;-95
2023/03/10 14:20:38;;;;;;;;;1.67;1.67;;;;;11.39;57.86;1414.38;4980971;28;48492;-96
2023/03/10 14:23:25;;;;;;;;;2.00;0.67;;;;;11.00;57.67;1411.53;4981639;28;45360;-95
2023/03/10 14:25:53;;;;;;;;;2.00;2.00;;;;;11.06;58.94;-585.09;4975062;28;45336;-96
2023/03/10 14:28:45;;;;;;;;;1.00;1.00;;;;;11.09;58.70;-1250.47;4975145;28;45692;-94
2023/03/10 14:33:46;;;;;;;;;0.67;0.67;;;;;9.09;57.55;402.31;3208443;23;48797;-95
2023/03/10 14:36:11;;;;;;;;;1.00;1.00;;;;;9.27;58.14;403.34;4989346;28;45320;-96
2023/03/10 14:38:37;;;;;;;;;2.00;2.00;;;;;9.73;58.14;405.88;4989533;28;45281;-96
2023/03/10 14:41:03;;;;;;;;;0.33;0.33;;;;;9.01;58.38;70.16;4996399;28;47019;-96
2023/03/10 14:43:30;;;;;;;;;1.00;1.00;;;;;8.91;58.46;-262.03;4995180;28;44807;-96
2023/03/10 14:46:01;;;;;;;;;1.00;1.00;;;;;10.43;58.03;409.78;4980177;28;45300;-96
2023/03/10 14:48:32;;;;;;;;;0.00;0.00;;;;;8.89;57.13;1064.63;4975192;28;44809;-96
2023/03/10 14:50:58;;;;;;;;;1.00;0.33;;;;;10.98;57.97;1411.44;4967998;28;48073;-94
2023/03/10 14:53:25;;;;;;;;;1.00;1.00;;;;;8.98;57.88;1065.25;4966184;28;45428;-96
2023/03/10 14:55:54;;;;;;;;;1.00;1.00;;;;;10.09;58.25;1405.00;4977499;28;45350;-96
2023/03/10 14:58:24;;;;;;;;;0.00;0.00;;;;;8.78;57.74;2059.09;4970898;28;45492;-96
2023/03/10 15:00:50;;;;;;;;;0.33;0.33;;;;;9.55;57.94;1733.22;4968863;28;47240;-96
2023/03/10 15:03:16;;;;;;;;;1.67;0.00;;;;;9.59;57.52;1733.53;4990459;28;45273;-96
2023/03/10 15:05:42;;;;;;;;;3.00;2.00;;;;;10.09;57.42;1737.44;4992288;28;45517;-96
2023/03/10 15:08:07;;;;;;;;;1.00;1.00;;;;;9.56;57.38;2065.50;4984560;28;45527;-94
2023/03/10 15:10:37;;;;;;;;;2.00;1.00;;;;;10.91;57.45;1743.75;4982498;28;47205;-91
2023/03/10 15:13:02;;;;;;;;;1.00;1.00;;;;;10.89;57.87;1743.59;4999696;28;45374;-90
2023/03/10 15:15:38;;;;;;;;;0.00;0.00;;;;;10.23;57.60;1405.97;5000247;28;45501;-90
2023/03/10 15:18:04;;;;;;;;;0.67;0.67;;;;;10.88;57.90;1410.69;4982735;28;45537;-91
2023/03/10 15:20:29;;;;;;;;;2.00;1.00;;;;;9.96;57.93;1736.38;5000682;28;46474;-94
2023/03/10 15:22:55;;;;;;;;;2.00;0.67;;;;;9.57;57.56;2065.53;4999730;28;45513;-96
2023/03/10 15:25:21;;;;;;;;;1.67;1.00;;;;;9.44;57.95;1732.38;4983550;28;45486;-93
2023/03/10 15:27:48;;;;;;;;;2.33;0.00;;;;;10.86;58.07;1410.53;4982861;28;45508;-92
2023/03/10 15:30:20;;;;;;;;;0.33;0.33;;;;;10.89;58.53;1410.72;4999193;28;46535;-91
2023/03/10 15:32:46;;;;;;;;;0.33;0.33;;;;;10.43;58.15;1074.81;4999129;28;45518;-90
2023/03/10 15:35:13;;;;;;;;;1.00;1.00;;;;;10.46;58.80;742.50;4981439;28;45541;-91
2023/03/10 15:37:39;;;;;;;;;3.00;1.67;;;;;10.89;58.61;745.13;4999615;28;45280;-91
2023/03/10 15:40:05;;;;;;;;;1.33;1.00;;;;;10.55;58.87;410.47;4998956;28;46543;-91
2023/03/10 15:42:30;;;;;;;;;2.00;0.33;;;;;10.42;58.59;409.69;4981938;28;45424;-91
2023/03/10 15:44:56;;;;;;;;;1.33;1.33;;;;;10.36;59.09;409.38;4982128;28;45364;-90
2023/03/10 15:47:21;;;;;;;;;1.67;1.67;;;;;10.15;58.94;408.25;4999484;28;45390;-91
2023/03/10 15:49:47;;;;;;;;;2.00;2.00;;;;;9.76;59.34;-258.22;4981294;28;47342;-90
2023/03/10 15:52:12;;;;;;;;;2.00;2.00;;;;;9.38;60.08;-923.63;4981596;28;45561;-91
2023/03/10 15:54:38;;;;;;;;;1.67;1.67;;;;;8.92;61.59;-3245.63;4981357;28;45238;-91
2023/03/10 15:57:05;;;;;;;;;1.00;1.00;;;;;10.07;62.21;-4905.63;4981948;28;45579;-91
2023/03/10 15:59:33;;;;;;;;;1.00;1.00;;;;;9.86;63.07;-6231.78;4980735;28;47227;-91
2023/03/10 16:01:59;;;;;;;;;1.00;1.00;;;;;9.73;63.13;-6562.66;4999063;28;45409;-92
2023/03/10 16:04:24;;;;;;;;;1.00;1.00;;;;;10.01;63.55;-7559.16;4981576;28;45498;-91
2023/03/10 16:06:50;;;;;;;;;4.00;3.00;;;;;9.38;63.56;-7885.84;4998599;28;45380;-91
2023/03/10 16:09:15;;;;;;;;;4.00;4.00;;;;;10.45;63.26;-7894.13;4977704;28;48507;-91
2023/03/10 16:11:40;;;;;;;;;4.00;2.33;;;;;10.46;62.74;-7562.41;4981423;28;45883;-91
2023/03/10 16:14:06;;;;;;;;;3.00;2.00;;;;;9.22;62.68;-7553.41;4981416;28;45369;-92
2023/03/10 16:16:31;;;;;;;;;3.00;3.00;;;;;8.65;62.40;-7218.41;4998811;28;45328;-91
2023/03/10 16:18:56;;;;;;;;;5.00;4.00;;;;;9.71;63.05;-7557.00;4998528;28;46464;-91
2023/03/10 16:21:22;;;;;;;;;5.33;4.67;;;;;9.73;62.48;-7225.69;4996824;28;45510;-92
2023/03/10 16:23:47;;;;;;;;;1.67;1.67;;;;;9.98;61.98;-6895.69;4980863;28;45763;-90
2023/03/10 16:26:21;;;;;;;;;4.00;3.00;;;;;10.50;61.73;-6566.97;4981434;28;45569;-92
2023/03/10 16:28:51;;;;;;;;;2.33;2.33;;;;;10.37;61.67;-6898.06;4998411;28;46590;-92
2023/03/10 16:31:18;;;;;;;;;1.67;1.67;;;;;10.28;61.83;-6897.53;4980352;28;45450;-91
2023/03/10 16:33:49;;;;;;;;;2.67;2.67;;;;;9.75;61.21;-5567.97;4981093;28;45468;-92
2023/03/10 16:36:20;;;;;;;;;2.00;2.00;;;;;9.71;61.06;-5899.44;4980944;28;45674;-92
2023/03/10 16:38:46;;;;;;;;;3.00;2.00;;;;;9.25;60.80;-4903.19;4997359;28;45339;-91
2023/03/10 16:41:12;;;;;;;;;2.00;2.00;;;;;10.43;60.35;-4906.69;4996887;28;46106;-91
2023/03/10 16:43:38;;;;;;;;;3.00;2.00;;;;;10.21;60.24;-4574.09;4981197;28;45374;-90
2023/03/10 16:46:11;;;;;;;;;1.33;1.33;;;;;10.46;60.46;-4574.72;4979525;28;45627;-91
2023/03/10 16:48:47;;;;;;;;;3.67;2.33;;;;;10.32;60.10;-4574.38;4979520;28;48410;-92
2023/03/10 16:51:23;;;;;;;;;3.00;3.00;;;;;10.37;59.90;-4242.41;4971188;28;45447;-92
2023/03/10 16:53:48;;;;;;;;;2.33;1.67;;;;;10.49;59.89;-3910.50;4981041;28;45414;-92
2023/03/10 16:56:14;;;;;;;;;2.00;1.00;;;;;10.49;59.80;-4242.66;4981142;28;45426;-92
2023/03/10 16:58:40;;;;;;;;;3.00;2.00;;;;;10.01;59.52;-3577.91;4997003;28;45731;-92
2023/03/10 17:01:05;;;;;;;;;1.00;1.00;;;;;10.03;59.53;-3245.97;4978863;28;45596;-91
2023/03/10 17:03:38;;;;;;;;;4.00;2.00;;;;;10.49;59.46;-3246.09;4997017;28;45399;-91
2023/03/10 17:06:11;;;;;;;;;5.33;5.00;;;;;10.48;59.14;-2581.59;4979663;28;45435;-93
2023/03/10 17:08:38;;;;;;;;;6.00;5.00;;;;;10.44;58.82;-2249.38;4975990;28;48486;-93
2023/03/10 17:11:04;;;;;;;;;7.00;5.00;;;;;9.94;58.73;-2250.00;4997377;28;45305;-93
2023/03/10 17:13:30;;;;;;;;;4.00;4.00;;;;;10.24;58.86;-1917.44;4980001;28;45376;-93
2023/03/10 17:15:56;;;;;;;;;4.00;4.00;;;;;10.08;58.40;-1585.59;4980024;28;45571;-94
2023/03/10 17:18:21;;;;;;;;;3.00;3.00;;;;;10.13;58.78;-1585.47;4979768;28;47364;-93
2023/03/10 17:20:47;;;;;;;;;4.00;3.33;;;;;10.11;58.62;-1585.53;4979895;28;45504;-93
2023/03/10 17:23:12;;;;;;;;;5.33;4.00;;;;;9.99;58.75;-1253.69;4980196;28;45447;-94
2023/03/10 17:25:41;;;;;;;;;71.25;57.00;;;;;10.37;58.62;-1252.59;4979954;28;45546;-93
2023/03/10 17:28:07;;;;;;;;;4.00;4.00;;;;;10.14;58.69;-1253.25;4979384;28;48270;-94
2023/03/10 17:30:32;;;;;;;;;2.00;2.00;;;;;9.48;58.70;-923.31;4978850;28;45383;-93
2023/03/10 17:32:58;;;;;;;;;6.00;3.00;;;;;10.33;58.83;-1252.72;4996289;28;45501;-94
2023/03/10 17:35:23;;;;;;;;;4.33;4.00;;;;;10.11;59.20;-1585.53;4979440;28;45327;-93
2023/03/10 17:37:49;;;;;;;;;4.33;4.00;;;;;10.15;59.60;-1917.59;4979686;28;47444;-93
2023/03/10 17:40:16;;;;;;;;;4.00;4.00;;;;;10.16;59.96;-1917.59;4979424;28;45427;-94
2023/03/10 17:42:41;;;;;;;;;4.00;4.00;;;;;10.12;60.07;-2581.88;4978881;28;45365;-93
2023/03/10 17:45:07;;;;;;;;;6.33;5.33;;;;;10.12;60.56;-2913.97;4979401;28;45706;-94
2023/03/10 17:47:33;;;;;;;;;8.33;5.00;;;;;9.81;60.33;-2914.03;4980547;28;47428;-94
2023/03/10 17:50:00;;;;;;;;;5.00;5.00;;;;;10.25;60.48;-2913.94;4981863;28;45482;-96
2023/03/10 17:52:26;;;;;;;;;5.67;5.67;;;;;10.26;60.68;-2913.94;4981120;28;45400;-96
2023/03/10 17:54:52;;;;;;;;;15.00;11.00;;;;;9.20;60.49;-2914.16;4981223;28;45374;-95
2023/03/10 17:57:17;;;;;;;;;8.33;7.67;;;;;8.48;59.84;-2583.09;4979388;28;48120;-95
2023/03/10 17:59:42;;;;;;;;;7.67;5.00;;;;;9.45;60.06;-2250.66;4981927;28;45416;-96